sensor_id;sensor_type;location;lat;lon;timestamp;pressure;altitude;pressure_sealevel;temperature;humidity
62055;BME280;48653;51.742;-1.256;2023-02-28T00:03:46;102706.90;;;3.71;46.47
62055;BME280;48653;51.742;-1.256;2023-02-28T00:06:11;102703.95;;;3.69;48.16
62055;BME280;48653;51.742;-1.256;2023-02-28T00:08:37;102710.24;;;3.63;48.77
62055;BME280;48653;51.742;-1.256;2023-02-28T00:11:03;102707.37;;;3.35;50.27
62055;BME280;48653;51.742;-1.256;2023-02-28T00:13:27;102704.42;;;3.74;48.49
62055;BME280;48653;51.742;-1.256;2023-02-28T00:16:00;102702.04;;;3.68;49.45
62055;BME280;48653;51.742;-1.256;2023-02-28T00:18:18;102709.29;;;2.86;51.85
62055;BME280;48653;51.742;-1.256;2023-02-28T00:20:44;102711.49;;;2.98;52.07
62055;BME280;48653;51.742;-1.256;2023-02-28T00:23:09;102713.08;;;2.94;51.79
62055;BME280;48653;51.742;-1.256;2023-02-28T00:25:34;102715.43;;;3.80;50.53
62055;BME280;48653;51.742;-1.256;2023-02-28T00:28:00;102718.25;;;3.17;51.83
62055;BME280;48653;51.742;-1.256;2023-02-28T00:30:25;102717.92;;;3.10;51.57
62055;BME280;48653;51.742;-1.256;2023-02-28T00:32:51;102719.32;;;3.81;50.56
62055;BME280;48653;51.742;-1.256;2023-02-28T00:35:16;102721.18;;;3.82;50.05
62055;BME280;48653;51.742;-1.256;2023-02-28T00:37:43;102723.99;;;3.46;50.24
62055;BME280;48653;51.742;-1.256;2023-02-28T00:40:09;102726.77;;;4.26;49.50
62055;BME280;48653;51.742;-1.256;2023-02-28T00:42:32;102724.13;;;3.81;50.42
62055;BME280;48653;51.742;-1.256;2023-02-28T00:44:58;102725.10;;;3.73;49.78
62055;BME280;48653;51.742;-1.256;2023-02-28T00:47:23;102726.35;;;3.96;49.44
62055;BME280;48653;51.742;-1.256;2023-02-28T00:49:48;102727.78;;;3.77;49.07
62055;BME280;48653;51.742;-1.256;2023-02-28T00:52:13;102731.10;;;3.51;48.85
62055;BME280;48653;51.742;-1.256;2023-02-28T00:54:39;102730.02;;;3.35;49.17
62055;BME280;48653;51.742;-1.256;2023-02-28T00:57:05;102731.07;;;3.50;48.91
62055;BME280;48653;51.742;-1.256;2023-02-28T00:59:30;102729.05;;;4.07;48.20
62055;BME280;48653;51.742;-1.256;2023-02-28T01:01:55;102730.95;;;3.52;48.41
62055;BME280;48653;51.742;-1.256;2023-02-28T01:04:21;102729.35;;;3.51;48.10
62055;BME280;48653;51.742;-1.256;2023-02-28T01:06:46;102724.81;;;3.43;48.06
62055;BME280;48653;51.742;-1.256;2023-02-28T01:09:12;102721.66;;;3.64;48.09
62055;BME280;48653;51.742;-1.256;2023-02-28T01:11:38;102724.87;;;3.60;48.29
62055;BME280;48653;51.742;-1.256;2023-02-28T01:14:04;102728.27;;;3.55;48.32
62055;BME280;48653;51.742;-1.256;2023-02-28T01:16:29;102728.24;;;3.42;48.00
62055;BME280;48653;51.742;-1.256;2023-02-28T01:18:55;102732.77;;;2.94;49.02
62055;BME280;48653;51.742;-1.256;2023-02-28T01:21:21;102732.82;;;2.76;48.99
62055;BME280;48653;51.742;-1.256;2023-02-28T01:23:47;102730.66;;;3.18;47.83
62055;BME280;48653;51.742;-1.256;2023-02-28T01:26:14;102731.68;;;2.92;47.62
62055;BME280;48653;51.742;-1.256;2023-02-28T01:28:38;102732.23;;;3.23;48.07
62055;BME280;48653;51.742;-1.256;2023-02-28T01:31:03;102736.77;;;3.01;48.15
62055;BME280;48653;51.742;-1.256;2023-02-28T01:33:29;102735.33;;;3.05;48.73
62055;BME280;48653;51.742;-1.256;2023-02-28T01:35:58;102737.75;;;2.92;48.46
62055;BME280;48653;51.742;-1.256;2023-02-28T01:38:20;102738.25;;;2.81;49.12
62055;BME280;48653;51.742;-1.256;2023-02-28T01:40:45;102739.84;;;2.82;49.09
62055;BME280;48653;51.742;-1.256;2023-02-28T01:43:20;102738.94;;;2.82;48.43
62055;BME280;48653;51.742;-1.256;2023-02-28T01:45:37;102735.86;;;3.04;48.36
62055;BME280;48653;51.742;-1.256;2023-02-28T01:48:05;102734.59;;;2.88;48.25
62055;BME280;48653;51.742;-1.256;2023-02-28T01:50:32;102736.14;;;2.84;48.11
62055;BME280;48653;51.742;-1.256;2023-02-28T01:52:55;102736.32;;;2.76;48.28
62055;BME280;48653;51.742;-1.256;2023-02-28T01:55:20;102736.17;;;2.83;48.57
62055;BME280;48653;51.742;-1.256;2023-02-28T01:57:48;102737.73;;;2.65;48.48
62055;BME280;48653;51.742;-1.256;2023-02-28T02:00:13;102733.49;;;2.74;48.01
62055;BME280;48653;51.742;-1.256;2023-02-28T02:02:37;102732.44;;;2.10;48.72
62055;BME280;48653;51.742;-1.256;2023-02-28T02:05:05;102729.67;;;2.36;48.92
62055;BME280;48653;51.742;-1.256;2023-02-28T02:07:29;102725.53;;;2.19;49.09
62055;BME280;48653;51.742;-1.256;2023-02-28T02:10:00;102727.32;;;2.46;48.31
62055;BME280;48653;51.742;-1.256;2023-02-28T02:12:27;102726.52;;;2.23;48.60
62055;BME280;48653;51.742;-1.256;2023-02-28T02:14:55;102727.81;;;1.76;49.60
62055;BME280;48653;51.742;-1.256;2023-02-28T02:17:18;102726.01;;;2.20;49.71
62055;BME280;48653;51.742;-1.256;2023-02-28T02:19:46;102722.52;;;1.99;49.44
62055;BME280;48653;51.742;-1.256;2023-02-28T02:27:03;102722.39;;;2.15;48.61
62055;BME280;48653;51.742;-1.256;2023-02-28T02:31:55;102723.50;;;2.27;47.79
62055;BME280;48653;51.742;-1.256;2023-02-28T02:34:23;102725.23;;;2.37;47.93
62055;BME280;48653;51.742;-1.256;2023-02-28T02:36:37;102721.85;;;1.93;48.87
62055;BME280;48653;51.742;-1.256;2023-02-28T02:39:04;102720.04;;;2.09;48.06
62055;BME280;48653;51.742;-1.256;2023-02-28T02:41:31;102722.73;;;1.95;49.11
62055;BME280;48653;51.742;-1.256;2023-02-28T02:43:52;102722.29;;;1.95;49.28
62055;BME280;48653;51.742;-1.256;2023-02-28T02:46:19;102717.44;;;2.46;48.44
62055;BME280;48653;51.742;-1.256;2023-02-28T02:48:41;102720.78;;;2.09;48.91
62055;BME280;48653;51.742;-1.256;2023-02-28T02:51:09;102721.09;;;1.98;49.87
62055;BME280;48653;51.742;-1.256;2023-02-28T02:53:35;102718.60;;;2.03;49.13
62055;BME280;48653;51.742;-1.256;2023-02-28T02:56:00;102710.85;;;2.55;48.43
62055;BME280;48653;51.742;-1.256;2023-02-28T02:58:26;102714.48;;;2.61;47.81
62055;BME280;48653;51.742;-1.256;2023-02-28T03:00:51;102712.54;;;2.90;47.46
62055;BME280;48653;51.742;-1.256;2023-02-28T03:03:14;102713.01;;;2.09;47.87
62055;BME280;48653;51.742;-1.256;2023-02-28T03:05:42;102713.57;;;2.49;47.32
62055;BME280;48653;51.742;-1.256;2023-02-28T03:08:05;102714.93;;;2.71;46.57
62055;BME280;48653;51.742;-1.256;2023-02-28T03:10:34;102713.90;;;2.58;46.69
62055;BME280;48653;51.742;-1.256;2023-02-28T03:13:03;102714.50;;;2.65;47.01
62055;BME280;48653;51.742;-1.256;2023-02-28T03:15:26;102712.92;;;2.69;46.14
62055;BME280;48653;51.742;-1.256;2023-02-28T03:17:54;102710.77;;;2.73;45.95
62055;BME280;48653;51.742;-1.256;2023-02-28T03:20:17;102711.59;;;2.79;46.05
62055;BME280;48653;51.742;-1.256;2023-02-28T03:22:49;102713.19;;;2.45;46.36
62055;BME280;48653;51.742;-1.256;2023-02-28T03:25:08;102715.95;;;2.32;46.94
62055;BME280;48653;51.742;-1.256;2023-02-28T03:27:30;102712.67;;;1.92;47.42
62055;BME280;48653;51.742;-1.256;2023-02-28T03:30:00;102706.47;;;2.15;47.37
62055;BME280;48653;51.742;-1.256;2023-02-28T03:32:24;102703.87;;;2.20;47.09
62055;BME280;48653;51.742;-1.256;2023-02-28T03:34:49;102703.74;;;1.98;47.63
62055;BME280;48653;51.742;-1.256;2023-02-28T03:37:13;102701.42;;;1.96;47.49
62055;BME280;48653;51.742;-1.256;2023-02-28T03:39:38;102703.70;;;2.10;47.17
62055;BME280;48653;51.742;-1.256;2023-02-28T03:42:03;102709.82;;;2.06;47.06
62055;BME280;48653;51.742;-1.256;2023-02-28T03:44:30;102715.97;;;1.60;47.44
62055;BME280;48653;51.742;-1.256;2023-02-28T03:46:56;102713.17;;;1.79;47.61
62055;BME280;48653;51.742;-1.256;2023-02-28T03:49:19;102708.23;;;1.97;46.88
62055;BME280;48653;51.742;-1.256;2023-02-28T03:51:43;102708.30;;;1.79;47.34
62055;BME280;48653;51.742;-1.256;2023-02-28T03:54:11;102709.26;;;1.99;47.39
62055;BME280;48653;51.742;-1.256;2023-02-28T03:56:37;102705.86;;;1.69;47.35
62055;BME280;48653;51.742;-1.256;2023-02-28T03:59:02;102705.63;;;1.55;47.39
62055;BME280;48653;51.742;-1.256;2023-02-28T04:01:28;102708.70;;;1.39;47.90
62055;BME280;48653;51.742;-1.256;2023-02-28T04:03:50;102707.55;;;1.84;46.91
62055;BME280;48653;51.742;-1.256;2023-02-28T04:06:17;102713.59;;;1.60;46.95
62055;BME280;48653;51.742;-1.256;2023-02-28T04:08:40;102715.26;;;1.62;46.51
62055;BME280;48653;51.742;-1.256;2023-02-28T04:11:14;102714.34;;;1.55;46.72
62055;BME280;48653;51.742;-1.256;2023-02-28T04:13:31;102718.46;;;1.59;46.14
62055;BME280;48653;51.742;-1.256;2023-02-28T04:15:57;102720.69;;;1.85;45.92
62055;BME280;48653;51.742;-1.256;2023-02-28T04:18:22;102722.93;;;1.86;45.96
62055;BME280;48653;51.742;-1.256;2023-02-28T04:20:48;102724.93;;;1.86;46.99
62055;BME280;48653;51.742;-1.256;2023-02-28T04:23:14;102727.39;;;1.69;46.46
62055;BME280;48653;51.742;-1.256;2023-02-28T04:25:39;102730.06;;;1.79;47.10
62055;BME280;48653;51.742;-1.256;2023-02-28T04:28:05;102730.21;;;1.88;47.12
62055;BME280;48653;51.742;-1.256;2023-02-28T04:30:30;102728.73;;;1.85;46.96
62055;BME280;48653;51.742;-1.256;2023-02-28T04:32:55;102724.94;;;1.57;46.94
62055;BME280;48653;51.742;-1.256;2023-02-28T04:35:21;102727.15;;;1.27;47.49
62055;BME280;48653;51.742;-1.256;2023-02-28T04:37:46;102734.63;;;1.69;47.21
62055;BME280;48653;51.742;-1.256;2023-02-28T04:40:12;102728.47;;;1.20;47.79
62055;BME280;48653;51.742;-1.256;2023-02-28T04:42:37;102731.49;;;1.13;48.27
62055;BME280;48653;51.742;-1.256;2023-02-28T04:45:04;102732.27;;;1.63;47.16
62055;BME280;48653;51.742;-1.256;2023-02-28T04:47:28;102734.68;;;1.71;47.08
62055;BME280;48653;51.742;-1.256;2023-02-28T04:49:54;102735.05;;;1.82;47.20
62055;BME280;48653;51.742;-1.256;2023-02-28T04:52:19;102733.15;;;1.40;47.12
62055;BME280;48653;51.742;-1.256;2023-02-28T04:54:44;102731.50;;;1.27;47.61
62055;BME280;48653;51.742;-1.256;2023-02-28T04:57:10;102725.38;;;1.38;48.05
62055;BME280;48653;51.742;-1.256;2023-02-28T04:59:36;102728.61;;;1.34;47.97
62055;BME280;48653;51.742;-1.256;2023-02-28T05:02:02;102728.60;;;1.09;48.24
62055;BME280;48653;51.742;-1.256;2023-02-28T05:04:27;102732.04;;;1.37;48.24
62055;BME280;48653;51.742;-1.256;2023-02-28T05:06:53;102739.66;;;1.20;48.20
62055;BME280;48653;51.742;-1.256;2023-02-28T05:09:19;102745.96;;;0.95;50.28
62055;BME280;48653;51.742;-1.256;2023-02-28T05:11:44;102747.37;;;1.12;49.53
62055;BME280;48653;51.742;-1.256;2023-02-28T05:14:12;102752.23;;;1.42;48.65
62055;BME280;48653;51.742;-1.256;2023-02-28T05:16:35;102753.97;;;1.56;48.78
62055;BME280;48653;51.742;-1.256;2023-02-28T05:19:00;102760.84;;;1.46;49.76
62055;BME280;48653;51.742;-1.256;2023-02-28T05:21:28;102762.22;;;1.84;49.44
62055;BME280;48653;51.742;-1.256;2023-02-28T05:23:51;102766.78;;;1.69;49.54
62055;BME280;48653;51.742;-1.256;2023-02-28T05:26:16;102763.97;;;1.87;49.65
62055;BME280;48653;51.742;-1.256;2023-02-28T05:28:41;102761.50;;;1.99;50.08
62055;BME280;48653;51.742;-1.256;2023-02-28T05:31:08;102762.22;;;1.94;50.41
62055;BME280;48653;51.742;-1.256;2023-02-28T05:33:32;102761.04;;;2.22;49.74
62055;BME280;48653;51.742;-1.256;2023-02-28T05:35:58;102762.34;;;1.82;50.20
62055;BME280;48653;51.742;-1.256;2023-02-28T05:38:23;102758.24;;;2.28;50.24
62055;BME280;48653;51.742;-1.256;2023-02-28T05:40:49;102758.13;;;2.39;49.87
62055;BME280;48653;51.742;-1.256;2023-02-28T05:43:14;102758.64;;;2.00;50.23
62055;BME280;48653;51.742;-1.256;2023-02-28T05:45:39;102759.37;;;2.53;49.80
62055;BME280;48653;51.742;-1.256;2023-02-28T05:48:05;102755.64;;;2.35;50.30
62055;BME280;48653;51.742;-1.256;2023-02-28T05:50:30;102755.52;;;2.44;49.76
62055;BME280;48653;51.742;-1.256;2023-02-28T05:52:56;102754.59;;;2.59;49.50
62055;BME280;48653;51.742;-1.256;2023-02-28T05:55:21;102757.93;;;2.41;50.26
62055;BME280;48653;51.742;-1.256;2023-02-28T05:57:47;102763.69;;;2.60;49.86
62055;BME280;48653;51.742;-1.256;2023-02-28T06:00:14;102768.13;;;2.58;49.90
62055;BME280;48653;51.742;-1.256;2023-02-28T06:02:38;102769.17;;;2.61;50.06
62055;BME280;48653;51.742;-1.256;2023-02-28T06:05:04;102772.05;;;2.67;50.13
62055;BME280;48653;51.742;-1.256;2023-02-28T06:07:29;102773.94;;;2.84;50.23
62055;BME280;48653;51.742;-1.256;2023-02-28T06:09:55;102772.38;;;2.88;49.81
62055;BME280;48653;51.742;-1.256;2023-02-28T06:12:21;102769.96;;;2.92;49.18
62055;BME280;48653;51.742;-1.256;2023-02-28T06:14:46;102768.93;;;3.07;48.96
62055;BME280;48653;51.742;-1.256;2023-02-28T06:17:12;102770.17;;;3.22;48.71
62055;BME280;48653;51.742;-1.256;2023-02-28T06:19:37;102770.34;;;3.34;48.86
62055;BME280;48653;51.742;-1.256;2023-02-28T06:22:02;102772.12;;;3.16;50.12
62055;BME280;48653;51.742;-1.256;2023-02-28T06:24:27;102774.22;;;3.18;49.86
62055;BME280;48653;51.742;-1.256;2023-02-28T06:29:18;102778.54;;;3.17;49.87
62055;BME280;48653;51.742;-1.256;2023-02-28T06:31:44;102775.14;;;3.38;50.49
62055;BME280;48653;51.742;-1.256;2023-02-28T06:34:08;102779.18;;;3.11;50.22
62055;BME280;48653;51.742;-1.256;2023-02-28T06:36:34;102781.00;;;3.68;50.45
62055;BME280;48653;51.742;-1.256;2023-02-28T06:39:00;102785.98;;;3.75;50.35
62055;BME280;48653;51.742;-1.256;2023-02-28T06:41:26;102788.09;;;3.57;50.48
62055;BME280;48653;51.742;-1.256;2023-02-28T06:43:51;102784.51;;;3.22;50.85
62055;BME280;48653;51.742;-1.256;2023-02-28T06:46:16;102784.48;;;3.59;51.45
62055;BME280;48653;51.742;-1.256;2023-02-28T06:48:42;102779.94;;;3.80;50.31
62055;BME280;48653;51.742;-1.256;2023-02-28T06:51:10;102782.22;;;3.30;51.39
62055;BME280;48653;51.742;-1.256;2023-02-28T06:53:34;102778.97;;;3.72;50.60
62055;BME280;48653;51.742;-1.256;2023-02-28T06:55:59;102778.72;;;3.38;49.94
62055;BME280;48653;51.742;-1.256;2023-02-28T06:58:25;102777.87;;;3.91;49.47
62055;BME280;48653;51.742;-1.256;2023-02-28T07:00:51;102775.19;;;3.86;49.29
62055;BME280;48653;51.742;-1.256;2023-02-28T07:03:14;102774.91;;;4.27;49.29
62055;BME280;48653;51.742;-1.256;2023-02-28T07:05:41;102778.71;;;3.72;49.82
62055;BME280;48653;51.742;-1.256;2023-02-28T07:08:06;102783.45;;;3.83;50.64
62055;BME280;48653;51.742;-1.256;2023-02-28T07:10:31;102783.19;;;4.02;49.79
62055;BME280;48653;51.742;-1.256;2023-02-28T07:12:59;102779.71;;;4.38;50.22
62055;BME280;48653;51.742;-1.256;2023-02-28T07:15:22;102780.08;;;3.82;52.46
62055;BME280;48653;51.742;-1.256;2023-02-28T07:17:47;102783.19;;;4.21;52.18
62055;BME280;48653;51.742;-1.256;2023-02-28T07:20:13;102786.93;;;3.82;53.02
62055;BME280;48653;51.742;-1.256;2023-02-28T07:22:38;102790.51;;;4.28;53.73
62055;BME280;48653;51.742;-1.256;2023-02-28T07:25:03;102790.20;;;4.59;53.41
62055;BME280;48653;51.742;-1.256;2023-02-28T07:27:28;102784.91;;;3.34;56.42
62055;BME280;48653;51.742;-1.256;2023-02-28T07:29:53;102787.96;;;3.83;56.30
62055;BME280;48653;51.742;-1.256;2023-02-28T07:32:19;102790.22;;;4.19;56.06
62055;BME280;48653;51.742;-1.256;2023-02-28T07:34:43;102792.06;;;4.06;55.95
62055;BME280;48653;51.742;-1.256;2023-02-28T07:37:09;102791.26;;;4.52;54.98
62055;BME280;48653;51.742;-1.256;2023-02-28T07:39:34;102789.63;;;4.22;56.26
62055;BME280;48653;51.742;-1.256;2023-02-28T07:41:59;102791.53;;;4.29;55.92
62055;BME280;48653;51.742;-1.256;2023-02-28T07:44:24;102787.97;;;4.67;55.46
62055;BME280;48653;51.742;-1.256;2023-02-28T07:46:49;102788.92;;;4.60;55.09
62055;BME280;48653;51.742;-1.256;2023-02-28T07:49:14;102787.89;;;5.00;54.86
62055;BME280;48653;51.742;-1.256;2023-02-28T07:51:40;102791.09;;;5.07;54.82
62055;BME280;48653;51.742;-1.256;2023-02-28T07:54:05;102789.51;;;4.92;54.50
62055;BME280;48653;51.742;-1.256;2023-02-28T07:56:30;102789.57;;;4.90;54.49
62055;BME280;48653;51.742;-1.256;2023-02-28T07:58:56;102788.37;;;4.69;55.36
62055;BME280;48653;51.742;-1.256;2023-02-28T08:01:21;102790.57;;;4.85;55.16
62055;BME280;48653;51.742;-1.256;2023-02-28T08:03:46;102792.20;;;5.38;54.26
62055;BME280;48653;51.742;-1.256;2023-02-28T08:06:17;102790.84;;;4.72;55.69
62055;BME280;48653;51.742;-1.256;2023-02-28T08:08:36;102788.00;;;4.57;56.66
62055;BME280;48653;51.742;-1.256;2023-02-28T08:11:03;102790.90;;;4.71;56.27
62055;BME280;48653;51.742;-1.256;2023-02-28T08:13:27;102787.90;;;4.76;56.00
62055;BME280;48653;51.742;-1.256;2023-02-28T08:15:52;102793.16;;;3.47;58.80
62055;BME280;48653;51.742;-1.256;2023-02-28T08:18:17;102796.86;;;3.56;57.95
62055;BME280;48653;51.742;-1.256;2023-02-28T08:20:42;102795.97;;;4.76;55.21
62055;BME280;48653;51.742;-1.256;2023-02-28T08:23:08;102793.31;;;5.01;54.26
62055;BME280;48653;51.742;-1.256;2023-02-28T08:25:33;102795.61;;;5.74;53.36
62055;BME280;48653;51.742;-1.256;2023-02-28T08:30:23;102795.66;;;5.75;53.01
62055;BME280;48653;51.742;-1.256;2023-02-28T08:32:48;102802.68;;;5.16;54.74
62055;BME280;48653;51.742;-1.256;2023-02-28T08:35:14;102798.09;;;5.72;53.69
62055;BME280;48653;51.742;-1.256;2023-02-28T08:37:39;102801.64;;;5.30;54.37
62055;BME280;48653;51.742;-1.256;2023-02-28T08:40:05;102799.98;;;5.22;55.00
62055;BME280;48653;51.742;-1.256;2023-02-28T08:42:30;102800.65;;;5.71;54.05
62055;BME280;48653;51.742;-1.256;2023-02-28T08:44:55;102798.00;;;5.03;55.67
62055;BME280;48653;51.742;-1.256;2023-02-28T08:47:20;102795.95;;;5.69;54.47
62055;BME280;48653;51.742;-1.256;2023-02-28T08:49:46;102796.15;;;4.96;55.46
62055;BME280;48653;51.742;-1.256;2023-02-28T08:54:36;102791.57;;;5.67;54.00
62055;BME280;48653;51.742;-1.256;2023-02-28T08:57:02;102787.77;;;6.03;53.33
62055;BME280;48653;51.742;-1.256;2023-02-28T08:59:26;102783.26;;;6.05;53.17
62055;BME280;48653;51.742;-1.256;2023-02-28T09:01:51;102779.78;;;6.31;52.26
62055;BME280;48653;51.742;-1.256;2023-02-28T09:04:17;102777.67;;;6.49;51.86
62055;BME280;48653;51.742;-1.256;2023-02-28T09:06:42;102781.96;;;5.82;52.80
62055;BME280;48653;51.742;-1.256;2023-02-28T09:09:07;102777.46;;;4.91;54.81
62055;BME280;48653;51.742;-1.256;2023-02-28T09:11:32;102772.40;;;5.82;53.48
62055;BME280;48653;51.742;-1.256;2023-02-28T09:13:59;102770.82;;;6.44;52.00
62055;BME280;48653;51.742;-1.256;2023-02-28T09:16:23;102769.11;;;6.04;51.70
62055;BME280;48653;51.742;-1.256;2023-02-28T09:18:48;102771.98;;;5.96;53.05
62055;BME280;48653;51.742;-1.256;2023-02-28T09:21:15;102764.11;;;6.18;53.09
62055;BME280;48653;51.742;-1.256;2023-02-28T09:23:38;102769.28;;;5.97;53.39
62055;BME280;48653;51.742;-1.256;2023-02-28T09:26:04;102765.76;;;6.59;52.96
62055;BME280;48653;51.742;-1.256;2023-02-28T09:28:29;102767.29;;;6.76;52.86
62055;BME280;48653;51.742;-1.256;2023-02-28T09:30:54;102769.19;;;7.04;53.14
62055;BME280;48653;51.742;-1.256;2023-02-28T09:33:21;102770.18;;;6.48;53.03
62055;BME280;48653;51.742;-1.256;2023-02-28T09:35:44;102764.32;;;7.12;52.01
62055;BME280;48653;51.742;-1.256;2023-02-28T09:38:10;102763.97;;;6.67;52.17
62055;BME280;48653;51.742;-1.256;2023-02-28T09:40:36;102766.07;;;7.33;51.36
62055;BME280;48653;51.742;-1.256;2023-02-28T09:43:00;102770.27;;;6.44;51.49
62055;BME280;48653;51.742;-1.256;2023-02-28T09:45:29;102765.79;;;5.59;53.05
62055;BME280;48653;51.742;-1.256;2023-02-28T09:47:52;102766.56;;;5.70;53.48
62055;BME280;48653;51.742;-1.256;2023-02-28T09:50:22;102769.70;;;5.89;53.00
62055;BME280;48653;51.742;-1.256;2023-02-28T09:52:41;102771.57;;;5.43;53.27
62055;BME280;48653;51.742;-1.256;2023-02-28T09:55:18;102770.37;;;4.78;56.23
62055;BME280;48653;51.742;-1.256;2023-02-28T09:57:35;102774.52;;;3.98;58.82
62055;BME280;48653;51.742;-1.256;2023-02-28T10:00:05;102774.15;;;5.09;55.73
62055;BME280;48653;51.742;-1.256;2023-02-28T10:04:50;102773.95;;;5.42;54.60
62055;BME280;48653;51.742;-1.256;2023-02-28T10:07:20;102774.27;;;6.32;53.50
62055;BME280;48653;51.742;-1.256;2023-02-28T10:09:37;102777.11;;;5.95;53.80
62055;BME280;48653;51.742;-1.256;2023-02-28T10:12:04;102767.90;;;6.00;53.64
62055;BME280;48653;51.742;-1.256;2023-02-28T10:14:30;102778.26;;;5.14;55.30
62055;BME280;48653;51.742;-1.256;2023-02-28T10:16:56;102779.87;;;5.65;54.15
62055;BME280;48653;51.742;-1.256;2023-02-28T10:19:21;102774.76;;;6.57;53.02
62055;BME280;48653;51.742;-1.256;2023-02-28T10:21:47;102778.42;;;7.07;53.00
62055;BME280;48653;51.742;-1.256;2023-02-28T10:24:19;102778.99;;;6.20;53.61
62055;BME280;48653;51.742;-1.256;2023-02-28T10:26:35;102778.59;;;6.45;53.65
62055;BME280;48653;51.742;-1.256;2023-02-28T10:29:00;102780.14;;;6.00;54.85
62055;BME280;48653;51.742;-1.256;2023-02-28T10:31:25;102779.70;;;4.32;58.14
62055;BME280;48653;51.742;-1.256;2023-02-28T10:33:50;102776.75;;;4.48;59.25
62055;BME280;48653;51.742;-1.256;2023-02-28T10:36:17;102777.95;;;5.52;56.44
62055;BME280;48653;51.742;-1.256;2023-02-28T10:38:41;102771.08;;;6.51;53.69
62055;BME280;48653;51.742;-1.256;2023-02-28T10:41:08;102773.02;;;6.14;53.74
62055;BME280;48653;51.742;-1.256;2023-02-28T10:43:33;102766.47;;;5.96;53.96
62055;BME280;48653;51.742;-1.256;2023-02-28T10:46:00;102763.99;;;6.95;51.80
62055;BME280;48653;51.742;-1.256;2023-02-28T10:48:32;102764.15;;;6.10;53.17
62055;BME280;48653;51.742;-1.256;2023-02-28T10:50:52;102768.38;;;5.15;56.07
62055;BME280;48653;51.742;-1.256;2023-02-28T10:53:25;102756.76;;;5.94;53.91
62055;BME280;48653;51.742;-1.256;2023-02-28T10:55:38;102763.01;;;5.29;55.27
62055;BME280;48653;51.742;-1.256;2023-02-28T11:00:33;102760.03;;;5.33;55.18
62055;BME280;48653;51.742;-1.256;2023-02-28T11:02:54;102757.65;;;5.86;54.15
62055;BME280;48653;51.742;-1.256;2023-02-28T11:05:24;102760.06;;;5.67;53.72
62055;BME280;48653;51.742;-1.256;2023-02-28T11:07:51;102762.03;;;5.92;52.85
62055;BME280;48653;51.742;-1.256;2023-02-28T11:10:18;102753.41;;;6.10;53.04
62055;BME280;48653;51.742;-1.256;2023-02-28T11:12:37;102753.26;;;6.56;52.24
62055;BME280;48653;51.742;-1.256;2023-02-28T11:15:05;102756.52;;;5.39;53.38
62055;BME280;48653;51.742;-1.256;2023-02-28T11:17:27;102750.22;;;5.95;53.43
62055;BME280;48653;51.742;-1.256;2023-02-28T11:19:53;102757.13;;;5.98;53.23
62055;BME280;48653;51.742;-1.256;2023-02-28T11:22:19;102753.86;;;6.05;52.32
62055;BME280;48653;51.742;-1.256;2023-02-28T11:24:43;102762.61;;;6.29;53.16
62055;BME280;48653;51.742;-1.256;2023-02-28T11:27:11;102757.31;;;6.46;53.22
62055;BME280;48653;51.742;-1.256;2023-02-28T11:29:33;102759.29;;;5.82;53.37
62055;BME280;48653;51.742;-1.256;2023-02-28T11:32:05;102750.32;;;5.94;52.99
62055;BME280;48653;51.742;-1.256;2023-02-28T11:34:27;102748.94;;;5.96;52.99
62055;BME280;48653;51.742;-1.256;2023-02-28T11:36:48;102753.60;;;5.59;53.98
62055;BME280;48653;51.742;-1.256;2023-02-28T11:39:14;102745.74;;;5.44;54.60
62055;BME280;48653;51.742;-1.256;2023-02-28T11:41:51;102739.05;;;6.50;52.31
62055;BME280;48653;51.742;-1.256;2023-02-28T11:44:17;102740.16;;;6.17;52.77
62055;BME280;48653;51.742;-1.256;2023-02-28T11:46:33;102743.94;;;5.85;52.76
62055;BME280;48653;51.742;-1.256;2023-02-28T11:49:02;102743.59;;;5.24;54.16
62055;BME280;48653;51.742;-1.256;2023-02-28T11:51:23;102730.69;;;6.09;52.38
62055;BME280;48653;51.742;-1.256;2023-02-28T11:53:55;102726.04;;;6.38;51.87
62055;BME280;48653;51.742;-1.256;2023-02-28T11:56:14;102731.37;;;6.51;51.54
62055;BME280;48653;51.742;-1.256;2023-02-28T11:58:43;102725.48;;;7.13;50.17
62055;BME280;48653;51.742;-1.256;2023-02-28T12:01:09;102723.71;;;6.77;51.57
62055;BME280;48653;51.742;-1.256;2023-02-28T12:03:30;102722.71;;;6.44;51.55
62055;BME280;48653;51.742;-1.256;2023-02-28T12:05:58;102722.24;;;6.22;52.55
62055;BME280;48653;51.742;-1.256;2023-02-28T12:08:26;102715.17;;;5.92;52.78
62055;BME280;48653;51.742;-1.256;2023-02-28T12:10:52;102716.79;;;5.93;52.80
62055;BME280;48653;51.742;-1.256;2023-02-28T12:13:16;102716.40;;;5.60;53.62
62055;BME280;48653;51.742;-1.256;2023-02-28T12:15:48;102712.66;;;6.79;51.88
62055;BME280;48653;51.742;-1.256;2023-02-28T12:18:10;102706.21;;;7.78;49.89
62055;BME280;48653;51.742;-1.256;2023-02-28T12:20:30;102704.09;;;7.48;50.22
62055;BME280;48653;51.742;-1.256;2023-02-28T12:22:56;102701.70;;;6.55;50.35
62055;BME280;48653;51.742;-1.256;2023-02-28T12:25:21;102702.85;;;7.55;49.64
62055;BME280;48653;51.742;-1.256;2023-02-28T12:27:43;102702.75;;;7.25;49.89
62055;BME280;48653;51.742;-1.256;2023-02-28T12:30:13;102706.82;;;6.91;50.31
62055;BME280;48653;51.742;-1.256;2023-02-28T12:32:33;102695.96;;;6.97;50.26
62055;BME280;48653;51.742;-1.256;2023-02-28T12:35:00;102700.60;;;6.86;50.55
62055;BME280;48653;51.742;-1.256;2023-02-28T12:37:25;102692.71;;;7.09;50.29
62055;BME280;48653;51.742;-1.256;2023-02-28T12:39:49;102689.83;;;6.65;51.15
62055;BME280;48653;51.742;-1.256;2023-02-28T12:42:15;102680.58;;;6.98;50.44
62055;BME280;48653;51.742;-1.256;2023-02-28T12:44:43;102674.99;;;8.03;48.99
62055;BME280;48653;51.742;-1.256;2023-02-28T12:47:04;102675.43;;;7.45;48.49
62055;BME280;48653;51.742;-1.256;2023-02-28T12:49:30;102674.47;;;6.61;50.12
62055;BME280;48653;51.742;-1.256;2023-02-28T12:51:52;102666.53;;;7.64;48.83
62055;BME280;48653;51.742;-1.256;2023-02-28T12:54:23;102658.77;;;6.44;50.61
62055;BME280;48653;51.742;-1.256;2023-02-28T12:56:47;102656.45;;;7.03;49.70
62055;BME280;48653;51.742;-1.256;2023-02-28T12:59:15;102655.96;;;6.76;50.35
62055;BME280;48653;51.742;-1.256;2023-02-28T13:01:42;102648.63;;;7.24;49.12